Time;durP1;ratioP1;P1;durP2;ratioP2;P2;SDS_P1;SDS_P2;PMS_P1;PMS_P2;Temp;Humidity;BMP_temperature;BMP_pressure;BME280_temperature;BME280_humidity;BME280_pressure;Samples;Min_cycle;Max_cycle;Signal;HPM_P1;HPM_P2
2022/10/02 00:00:31;;;;;;;;;;;;;;;13.18;100.00;98073.34;5075658;28;19984;-73
2022/10/02 00:03:03;;;;;;;;;;;;;;;13.13;100.00;98080.59;5077890;28;19924;-73
2022/10/02 00:05:34;;;;;;;;;;;;;;;13.19;100.00;98074.13;5076352;28;20437;-73
2022/10/02 00:08:03;;;;;;;;;;;;;;;13.14;100.00;98074.16;5074276;28;19956;-73
2022/10/02 00:10:31;;;;;;;;;;;;;;;13.15;100.00;98083.81;5075206;28;19992;-73
2022/10/02 00:13:00;;;;;;;;;;;;;;;13.16;100.00;98085.41;5077618;28;19992;-73
2022/10/02 00:15:28;;;;;;;;;;;;;;;13.23;100.00;98088.59;5076639;28;19980;-73
2022/10/02 00:17:56;;;;;;;;;;;;;;;13.22;100.00;98090.47;5073867;28;19993;-73
2022/10/02 00:20:27;;;;;;;;;;;;;;;13.23;100.00;98089.41;5072987;28;19990;-73
2022/10/02 00:22:57;;;;;;;;;;;;;;;13.25;100.00;98097.16;5077206;28;19939;-73
2022/10/02 00:25:26;;;;;;;;;;;;;;;13.15;100.00;98094.56;5076902;28;19936;-73
2022/10/02 00:28:02;;;;;;;;;;;;;;;13.17;100.00;98103.13;5073620;28;20015;-72
2022/10/02 00:30:33;;;;;;;;;;;;;;;13.20;100.00;98102.56;5074703;28;19929;-72
2022/10/02 00:33:06;;;;;;;;;;;;;;;13.22;100.00;98111.13;5077420;28;20008;-72
2022/10/02 00:35:48;;;;;;;;;;;;;;;13.21;100.00;98113.03;5075669;28;19960;-72
2022/10/02 00:38:22;;;;;;;;;;;;;;;13.14;100.00;98111.72;5073746;28;19935;-73
2022/10/02 00:41:06;;;;;;;;;;;;;;;13.34;100.00;98114.28;5066342;28;19961;-72
2022/10/02 00:43:35;;;;;;;;;;;;;;;13.26;100.00;98118.38;5047390;28;19925;-72
2022/10/02 00:46:20;;;;;;;;;;;;;;;13.27;100.00;98124.53;5092670;28;19935;-73
2022/10/02 00:48:48;;;;;;;;;;;;;;;13.24;100.00;98130.44;5059250;28;19936;-72
2022/10/02 00:51:24;;;;;;;;;;;;;;;13.32;100.00;98138.72;5077890;28;19925;-72
2022/10/02 00:53:56;;;;;;;;;;;;;;;13.30;100.00;98123.97;5071438;28;19960;-72
2022/10/02 00:56:28;;;;;;;;;;;;;;;13.36;100.00;98131.75;5078107;28;19925;-72
2022/10/02 00:59:18;;;;;;;;;;;;;;;13.31;100.00;98128.25;5096858;28;19925;-73
2022/10/02 01:01:49;;;;;;;;;;;;;;;13.34;100.00;98135.75;5062489;28;19925;-72
2022/10/02 01:04:17;;;;;;;;;;;;;;;13.41;100.00;98145.13;5077606;28;19929;-72
2022/10/02 01:06:45;;;;;;;;;;;;;;;13.50;100.00;98139.97;5079483;28;20301;-73
2022/10/02 01:09:11;;;;;;;;;;;;;;;13.46;100.00;98138.94;5081321;28;19988;-73
2022/10/02 01:11:38;;;;;;;;;;;;;;;13.43;100.00;98144.84;5093889;28;19925;-73
2022/10/02 01:14:04;;;;;;;;;;;;;;;13.40;100.00;98148.09;5077409;28;19925;-73
2022/10/02 01:16:31;;;;;;;;;;;;;;;13.50;100.00;98145.34;5078723;28;19967;-73
2022/10/02 01:18:57;;;;;;;;;;;;;;;13.41;100.00;98147.81;5080735;28;19924;-73
2022/10/02 01:21:28;;;;;;;;;;;;;;;13.39;100.00;98149.16;5080193;28;19947;-72
2022/10/02 01:23:57;;;;;;;;;;;;;;;13.26;100.00;98147.06;5077205;28;19984;-73
2022/10/02 01:26:25;;;;;;;;;;;;;;;13.41;100.00;98138.94;5077346;28;19925;-72
2022/10/02 01:28:51;;;;;;;;;;;;;;;13.32;100.00;98143.28;5080664;28;20015;-72
2022/10/02 01:31:18;;;;;;;;;;;;;;;13.27;100.00;98141.44;5080710;28;19956;-72
2022/10/02 01:33:47;;;;;;;;;;;;;;;13.34;100.00;98141.13;5077335;28;19933;-73
2022/10/02 01:36:14;;;;;;;;;;;;;;;13.21;100.00;98141.72;5077048;28;19968;-72
2022/10/02 01:38:41;;;;;;;;;;;;;;;13.26;100.00;98149.75;5079207;28;19996;-73
2022/10/02 01:41:10;;;;;;;;;;;;;;;13.28;100.00;98137.66;5080067;28;20052;-72
2022/10/02 01:43:39;;;;;;;;;;;;;;;13.40;100.00;98140.03;5076904;28;19924;-73
2022/10/02 01:46:30;;;;;;;;;;;;;;;13.27;100.00;98143.31;5075288;28;19996;-72
2022/10/02 01:49:05;;;;;;;;;;;;;;;13.32;100.00;98129.88;5069737;28;19931;-73
2022/10/02 01:51:36;;;;;;;;;;;;;;;13.38;100.00;98139.50;5076756;28;19967;-72
2022/10/02 01:54:08;;;;;;;;;;;;;;;13.26;100.00;98130.97;5079932;28;19984;-73
2022/10/02 01:56:37;;;;;;;;;;;;;;;13.35;100.00;98132.00;5078295;28;19983;-73
2022/10/02 01:59:14;;;;;;;;;;;;;;;13.38;100.00;98134.13;5080046;28;20020;-73
2022/10/02 02:01:44;;;;;;;;;;;;;;;13.39;100.00;98136.56;5076194;28;19947;-72
2022/10/02 02:04:19;;;;;;;;;;;;;;;13.43;100.00;98139.50;5076241;28;20046;-72
2022/10/02 02:06:50;;;;;;;;;;;;;;;13.44;100.00;98124.97;5079795;28;19924;-72
2022/10/02 02:09:18;;;;;;;;;;;;;;;13.33;100.00;98124.25;5079883;28;19952;-72
2022/10/02 02:11:51;;;;;;;;;;;;;;;13.45;100.00;98131.97;5076015;28;19952;-72
2022/10/02 02:14:24;;;;;;;;;;;;;;;13.24;100.00;98128.56;5076456;28;19959;-72
2022/10/02 02:16:54;;;;;;;;;;;;;;;13.32;100.00;98137.91;5067182;28;20019;-73
2022/10/02 02:19:23;;;;;;;;;;;;;;;13.43;100.00;98144.84;5074970;28;19925;-73
2022/10/02 02:21:52;;;;;;;;;;;;;;;13.33;100.00;98140.34;5068483;28;19924;-72
2022/10/02 02:24:22;;;;;;;;;;;;;;;13.38;100.00;98132.25;5076097;28;19963;-72
2022/10/02 02:26:49;;;;;;;;;;;;;;;13.24;100.00;98125.09;5067038;28;19925;-72
2022/10/02 02:29:17;;;;;;;;;;;;;;;13.31;100.00;98130.94;5076126;28;19925;-72
2022/10/02 02:31:48;;;;;;;;;;;;;;;13.39;100.00;98123.16;5079423;28;20260;-72
2022/10/02 02:34:17;;;;;;;;;;;;;;;13.37;100.00;98124.47;5079437;28;19931;-72
2022/10/02 02:36:45;;;;;;;;;;;;;;;13.38;100.00;98120.72;5076484;28;19975;-72
2022/10/02 02:39:14;;;;;;;;;;;;;;;13.35;100.00;98130.13;5075951;28;20431;-72
2022/10/02 02:41:43;;;;;;;;;;;;;;;13.31;100.00;98125.56;5078443;28;19932;-73
2022/10/02 02:44:12;;;;;;;;;;;;;;;13.36;100.00;98131.75;5080213;28;19979;-73
2022/10/02 02:49:24;;;;;;;;;;;;;;;13.41;100.00;98142.44;5091662;28;19929;-73
2022/10/02 02:51:53;;;;;;;;;;;;;;;13.41;100.00;98139.75;5080100;28;19932;-73
2022/10/02 02:54:22;;;;;;;;;;;;;;;13.36;100.00;98136.28;5095866;28;19988;-73
2022/10/02 02:56:50;;;;;;;;;;;;;;;13.44;100.00;98143.75;5068311;28;19925;-73
2022/10/02 02:59:18;;;;;;;;;;;;;;;13.32;100.00;98156.69;5075624;28;19925;-72
2022/10/02 03:01:44;;;;;;;;;;;;;;;13.36;100.00;98147.03;5078849;28;20302;-72
2022/10/02 03:04:11;;;;;;;;;;;;;;;13.33;100.00;98147.56;5077909;28;19935;-73
2022/10/02 03:06:40;;;;;;;;;;;;;;;13.32;100.00;98149.44;5076836;28;19963;-72
2022/10/02 03:09:11;;;;;;;;;;;;;;;13.29;100.00;98143.81;5075602;28;19967;-72
2022/10/02 03:11:42;;;;;;;;;;;;;;;13.30;100.00;98140.06;5077581;28;19932;-72
2022/10/02 03:14:15;;;;;;;;;;;;;;;13.30;100.00;98138.19;5078238;28;19924;-72
2022/10/02 03:16:48;;;;;;;;;;;;;;;13.34;100.00;98149.16;5075725;28;19928;-72
2022/10/02 03:19:20;;;;;;;;;;;;;;;13.38;100.00;98145.66;5073636;28;19956;-73
2022/10/02 03:21:53;;;;;;;;;;;;;;;13.35;100.00;98156.94;5066956;28;19995;-73
2022/10/02 03:24:21;;;;;;;;;;;;;;;13.39;100.00;98154.53;5074561;28;20000;-73
2022/10/02 03:26:52;;;;;;;;;;;;;;;13.42;100.00;98148.59;5066770;28;19960;-73
2022/10/02 03:29:21;;;;;;;;;;;;;;;13.39;100.00;98143.78;5074718;28;19951;-73
2022/10/02 03:31:48;;;;;;;;;;;;;;;13.42;100.00;98138.69;5066877;28;19967;-73
2022/10/02 03:34:16;;;;;;;;;;;;;;;13.32;100.00;98143.28;5073152;28;19956;-72
2022/10/02 03:36:42;;;;;;;;;;;;;;;13.35;100.00;98148.91;5077517;28;19987;-72
2022/10/02 03:39:10;;;;;;;;;;;;;;;13.33;100.00;98143.03;5077752;28;19920;-72
2022/10/02 03:41:36;;;;;;;;;;;;;;;13.33;100.00;98134.16;5075644;28;20012;-73
2022/10/02 03:44:03;;;;;;;;;;;;;;;13.40;100.00;98142.72;5074669;28;19936;-73
2022/10/02 03:46:29;;;;;;;;;;;;;;;13.40;100.00;98154.22;5076135;28;19925;-72
2022/10/02 03:48:55;;;;;;;;;;;;;;;13.44;100.00;98149.13;5077948;28;20518;-72
2022/10/02 03:51:22;;;;;;;;;;;;;;;13.43;100.00;98139.50;5078512;28;19960;-73
2022/10/02 03:53:48;;;;;;;;;;;;;;;13.38;100.00;98147.53;5074440;28;19935;-73
2022/10/02 03:56:20;;;;;;;;;;;;;;;13.33;100.00;98152.94;5074518;28;19932;-72
2022/10/02 03:58:49;;;;;;;;;;;;;;;13.34;100.00;98157.22;5066151;28;20048;-73
2022/10/02 04:01:17;;;;;;;;;;;;;;;13.40;100.00;98148.09;5074538;28;19960;-72
2022/10/02 04:03:47;;;;;;;;;;;;;;;13.38;100.00;98158.28;5077800;28;19934;-73
2022/10/02 04:06:15;;;;;;;;;;;;;;;13.45;100.00;98154.22;5076984;28;19967;-73
2022/10/02 04:08:45;;;;;;;;;;;;;;;13.27;100.00;98146.00;5075111;28;19939;-72
2022/10/02 04:11:13;;;;;;;;;;;;;;;13.36;100.00;98141.66;5075360;28;19960;-72
2022/10/02 04:13:44;;;;;;;;;;;;;;;13.33;100.00;98142.22;5077507;28;19956;-72
2022/10/02 04:16:13;;;;;;;;;;;;;;;13.27;100.00;98154.03;5094010;28;19920;-73
2022/10/02 04:18:43;;;;;;;;;;;;;;;13.33;100.00;98150.25;5075436;28;20328;-72
2022/10/02 04:21:11;;;;;;;;;;;;;;;13.33;100.00;98148.38;5074308;28;19924;-72
2022/10/02 04:23:41;;;;;;;;;;;;;;;13.36;100.00;98144.34;5078314;28;19924;-73
2022/10/02 04:26:13;;;;;;;;;;;;;;;13.42;100.00;98160.16;5074454;28;19924;-72
2022/10/02 04:28:42;;;;;;;;;;;;;;;13.43;100.00;98159.06;5076689;28;19925;-73
2022/10/02 04:31:10;;;;;;;;;;;;;;;13.40;100.00;98167.66;5077554;28;19988;-73
2022/10/02 04:33:37;;;;;;;;;;;;;;;13.42;100.00;98159.34;5075330;28;19925;-73
2022/10/02 04:36:07;;;;;;;;;;;;;;;13.41;100.00;98165.78;5074090;28;20627;-72
2022/10/02 04:38:41;;;;;;;;;;;;;;;13.50;100.00;98169.50;5075376;28;19971;-73
2022/10/02 04:41:17;;;;;;;;;;;;;;;13.32;100.00;98145.97;5077104;28;20510;-73
2022/10/02 04:43:52;;;;;;;;;;;;;;;13.28;100.00;98144.91;5074090;28;19996;-73
2022/10/02 04:46:27;;;;;;;;;;;;;;;13.32;100.00;98149.44;5072363;28;19984;-72
2022/10/02 04:49:09;;;;;;;;;;;;;;;13.29;100.00;98159.91;5064868;28;19924;-73
2022/10/02 04:51:41;;;;;;;;;;;;;;;13.32;100.00;98148.66;5074398;28;19999;-72
2022/10/02 04:54:23;;;;;;;;;;;;;;;13.34;100.00;98151.84;5076208;28;19964;-72
2022/10/02 04:57:02;;;;;;;;;;;;;;;13.35;100.00;98153.47;5065619;28;20005;-74
2022/10/02 04:59:35;;;;;;;;;;;;;;;13.34;100.00;98154.53;5074379;28;19984;-74
2022/10/02 05:02:14;;;;;;;;;;;;;;;13.29;100.00;98150.00;5076827;28;19924;-73
2022/10/02 05:04:49;;;;;;;;;;;;;;;13.31;100.00;98149.72;5074103;28;19928;-73
2022/10/02 05:07:24;;;;;;;;;;;;;;;13.30;100.00;98151.63;5089236;28;19921;-73
2022/10/02 05:10:00;;;;;;;;;;;;;;;13.20;100.00;98159.69;5066411;28;19932;-74
2022/10/02 05:12:36;;;;;;;;;;;;;;;13.30;100.00;98169.59;5074277;28;19967;-73
2022/10/02 05:15:18;;;;;;;;;;;;;;;13.34;100.00;98160.69;5077199;28;19967;-74
2022/10/02 05:17:51;;;;;;;;;;;;;;;13.42;100.00;98156.66;5073857;28;19967;-74
2022/10/02 05:20:28;;;;;;;;;;;;;;;13.40;100.00;98166.88;5073815;28;19988;-73
2022/10/02 05:23:02;;;;;;;;;;;;;;;13.43;100.00;98171.69;5068355;28;19924;-74
2022/10/02 05:25:47;;;;;;;;;;;;;;;13.42;100.00;98165.50;5076080;28;19995;-73
2022/10/02 05:28:24;;;;;;;;;;;;;;;13.47;100.00;98175.41;5071906;28;20008;-74
2022/10/02 05:30:54;;;;;;;;;;;;;;;13.53;100.00;98185.84;5065489;28;19952;-73
2022/10/02 05:33:32;;;;;;;;;;;;;;;13.51;100.00;98182.66;5073146;28;19924;-74
2022/10/02 05:36:07;;;;;;;;;;;;;;;13.53;100.00;98190.41;5066226;28;19925;-74
2022/10/02 05:38:46;;;;;;;;;;;;;;;13.49;100.00;98189.38;5077221;28;19929;-75
2022/10/02 05:41:16;;;;;;;;;;;;;;;13.49;100.00;98182.09;5079980;28;19950;-74
2022/10/02 05:43:46;;;;;;;;;;;;;;;13.46;100.00;98187.22;5078130;28;20287;-75
2022/10/02 05:46:16;;;;;;;;;;;;;;;13.45;100.00;98178.38;5076466;28;19963;-75
2022/10/02 05:48:44;;;;;;;;;;;;;;;13.45;100.00;98199.03;5095507;28;19976;-74
2022/10/02 05:51:16;;;;;;;;;;;;;;;13.52;100.00;98196.88;5079041;28;19932;-74
2022/10/02 05:53:46;;;;;;;;;;;;;;;13.54;100.00;98197.38;5077641;28;19968;-75
2022/10/02 05:56:16;;;;;;;;;;;;;;;13.60;100.00;98187.44;5091928;28;19924;-75
2022/10/02 05:58:48;;;;;;;;;;;;;;;13.52;100.00;98188.81;5078162;28;19928;-75
2022/10/02 06:01:19;;;;;;;;;;;;;;;13.54;100.00;98194.69;5080253;28;19927;-75
2022/10/02 06:03:48;;;;;;;;;;;;;;;13.59;100.00;98201.91;5092240;28;19936;-74
2022/10/02 06:06:16;;;;;;;;;;;;;;;13.55;100.00;98193.63;5075161;28;19935;-74
2022/10/02 06:08:47;;;;;;;;;;;;;;;13.52;100.00;98178.88;5077972;28;19947;-75
2022/10/02 06:11:16;;;;;;;;;;;;;;;13.44;100.00;98182.13;5078256;28;19963;-74
2022/10/02 06:13:45;;;;;;;;;;;;;;;13.40;100.00;98183.75;5076801;28;19925;-74
2022/10/02 06:16:17;;;;;;;;;;;;;;;13.43;100.00;98183.19;5076499;28;19925;-74
2022/10/02 06:18:48;;;;;;;;;;;;;;;13.45;100.00;98177.56;5077732;28;19939;-74
2022/10/02 06:21:19;;;;;;;;;;;;;;;13.55;100.00;98193.63;5078850;28;19932;-74
2022/10/02 06:23:48;;;;;;;;;;;;;;;13.49;100.00;98186.69;5076630;28;19924;-74
2022/10/02 06:26:18;;;;;;;;;;;;;;;13.41;100.00;98184.56;5076973;28;20484;-74
2022/10/02 06:28:51;;;;;;;;;;;;;;;13.36;100.00;98181.91;5078992;28;19956;-74
2022/10/02 06:31:20;;;;;;;;;;;;;;;13.44;100.00;98182.13;5079527;28;19932;-74
2022/10/02 06:33:47;;;;;;;;;;;;;;;13.40;100.00;98177.59;5074718;28;19925;-75
2022/10/02 06:36:25;;;;;;;;;;;;;;;13.47;100.00;98178.09;5075919;28;20019;-74
2022/10/02 06:39:01;;;;;;;;;;;;;;;13.46;100.00;98179.19;5067502;28;20027;-75
2022/10/02 06:41:32;;;;;;;;;;;;;;;13.46;100.00;98176.50;5075097;28;19952;-75
2022/10/02 06:44:11;;;;;;;;;;;;;;;13.49;100.00;98179.41;5078136;28;20244;-75
2022/10/02 06:46:41;;;;;;;;;;;;;;;13.51;100.00;98184.53;5077069;28;19935;-75
2022/10/02 06:49:15;;;;;;;;;;;;;;;13.56;100.00;98176.44;5091549;28;19990;-76
2022/10/02 06:51:47;;;;;;;;;;;;;;;13.51;100.00;98184.53;5078593;28;19932;-76
2022/10/02 06:54:21;;;;;;;;;;;;;;;13.44;100.00;98178.63;5077451;28;20158;-77
2022/10/02 06:57:01;;;;;;;;;;;;;;;13.38;100.00;98185.91;5065858;28;19932;-76
2022/10/02 06:59:34;;;;;;;;;;;;;;;13.37;100.00;98178.13;5076172;28;19963;-76
2022/10/02 07:02:05;;;;;;;;;;;;;;;13.28;100.00;98193.19;5078397;28;19930;-76
2022/10/02 07:04:44;;;;;;;;;;;;;;;13.51;100.00;98177.28;5077015;28;19960;-75
2022/10/02 07:07:20;;;;;;;;;;;;;;;13.40;100.00;98185.66;5074487;28;19924;-75
2022/10/02 07:09:51;;;;;;;;;;;;;;;13.33;100.00;98175.22;5066995;28;19925;-76
2022/10/02 07:12:30;;;;;;;;;;;;;;;13.36;100.00;98173.84;5074756;28;19964;-76
2022/10/02 07:15:06;;;;;;;;;;;;;;;13.48;100.00;98179.69;5067148;28;19929;-76
2022/10/02 07:17:38;;;;;;;;;;;;;;;13.48;100.00;98180.50;5074994;28;19935;-76
2022/10/02 07:20:19;;;;;;;;;;;;;;;13.33;100.00;98171.72;5078811;28;20366;-76
2022/10/02 07:23:15;;;;;;;;;;;;;;;13.35;100.00;98173.03;5090491;28;19963;-76
2022/10/02 07:25:55;;;;;;;;;;;;;;;13.38;100.00;98179.75;5075505;28;19940;-77
2022/10/02 07:28:28;;;;;;;;;;;;;;;13.37;100.00;98167.38;5074803;28;19931;-78
2022/10/02 07:30:58;;;;;;;;;;;;;;;13.45;100.00;98173.00;5067919;28;19928;-77
2022/10/02 07:33:34;;;;;;;;;;;;;;;13.44;100.00;98162.53;5073597;28;19948;-76
2022/10/02 07:36:03;;;;;;;;;;;;;;;13.45;100.00;98158.78;5078019;28;19925;-77
2022/10/02 07:38:45;;;;;;;;;;;;;;;13.51;100.00;98155.81;5075765;28;19988;-75
2022/10/02 07:41:18;;;;;;;;;;;;;;;13.47;100.00;98156.63;5074992;28;19992;-75
2022/10/02 07:43:50;;;;;;;;;;;;;;;13.35;100.00;98156.94;5078041;28;19982;-75
2022/10/02 07:46:20;;;;;;;;;;;;;;;13.54;100.00;98159.81;5093525;28;19954;-74
2022/10/02 07:48:56;;;;;;;;;;;;;;;13.49;100.00;98160.63;5074042;28;19924;-75
2022/10/02 07:51:48;;;;;;;;;;;;;;;13.54;100.00;98167.88;5074051;28;19936;-74
2022/10/02 07:54:29;;;;;;;;;;;;;;;13.61;100.00;98172.94;5075905;28;19929;-75
2022/10/02 07:57:00;;;;;;;;;;;;;;;13.64;100.00;98178.56;5067036;28;20278;-75
2022/10/02 07:59:30;;;;;;;;;;;;;;;13.76;100.00;98180.91;5074215;28;19935;-75
2022/10/02 08:01:58;;;;;;;;;;;;;;;13.81;100.00;98183.56;5077338;28;19989;-75
2022/10/02 08:04:28;;;;;;;;;;;;;;;13.81;100.00;98184.38;5077790;28;19996;-75
2022/10/02 08:06:57;;;;;;;;;;;;;;;13.90;100.00;98185.38;5074352;28;19929;-75
2022/10/02 08:09:31;;;;;;;;;;;;;;;13.87;100.00;98190.50;5075143;28;20014;-77
2022/10/02 08:12:03;;;;;;;;;;;;;;;13.82;100.00;98180.63;5077634;28;19925;-78
2022/10/02 08:14:37;;;;;;;;;;;;;;;13.88;100.00;98184.06;5092775;28;20452;-78
2022/10/02 08:17:10;;;;;;;;;;;;;;;13.98;100.00;98197.44;5074923;28;19986;-78
2022/10/02 08:19:39;;;;;;;;;;;;;;;13.88;100.00;98190.25;5076352;28;19924;-75
2022/10/02 08:22:09;;;;;;;;;;;;;;;13.90;100.00;98190.75;5078263;28;19935;-76
2022/10/02 08:24:37;;;;;;;;;;;;;;;14.02;100.00;98185.84;5078219;28;19928;-76
2022/10/02 08:27:07;;;;;;;;;;;;;;;13.87;100.00;98185.94;5081376;28;19986;-75
2022/10/02 08:29:43;;;;;;;;;;;;;;;14.00;100.00;98188.03;5078288;28;19924;-78
2022/10/02 08:32:11;;;;;;;;;;;;;;;14.12;100.00;98192.22;5076913;28;19924;-73
2022/10/02 08:34:42;;;;;;;;;;;;;;;14.08;100.00;98195.47;5078758;28;19921;-77
2022/10/02 08:37:34;;;;;;;;;;;;;;;13.94;100.00;98193.69;5079354;28;19981;-77
2022/10/02 08:43:21;;;;;;;;;;;;;;;13.99;100.00;98197.16;5071646;28;19991;-74
2022/10/02 08:46:15;;;;;;;;;;;;;;;14.14;100.00;98198.16;5068244;28;19939;-73
2022/10/02 08:49:04;;;;;;;;;;;;;;;13.99;100.00;98182.91;5037294;28;19920;-74
2022/10/02 08:51:44;;;;;;;;;;;;;;;14.15;100.00;98183.63;5095448;28;19924;-73
2022/10/02 08:54:26;;;;;;;;;;;;;;;14.19;100.00;98179.31;5093594;28;19947;-75
2022/10/02 08:56:58;;;;;;;;;;;;;;;14.23;100.00;98178.47;5067315;28;19925;-76
2022/10/02 08:59:58;;;;;;;;;;;;;;;14.24;100.00;98174.69;5075521;28;20000;-76
2022/10/02 09:02:44;;;;;;;;;;;;;;;14.29;100.00;98173.88;5075702;28;20018;-74
2022/10/02 09:05:40;;;;;;;;;;;;;;;14.38;100.00;98177.59;5074967;28;19971;-72
2022/10/02 09:08:27;;;;;;;;;;;;;;;14.30;100.00;98176.25;5069167;28;20337;-76
2022/10/02 09:11:12;;;;;;;;;;;;;;;14.21;100.00;98177.13;5080626;28;19925;-76
2022/10/02 09:14:09;;;;;;;;;;;;;;;14.29;100.00;98173.88;5080368;28;19925;-76
2022/10/02 09:16:44;;;;;;;;;;;;;;;14.32;100.00;98170.63;5051723;28;19929;-77
2022/10/02 09:19:21;;;;;;;;;;;;;;;14.16;100.00;98172.63;5093818;28;19951;-73
2022/10/02 09:21:53;;;;;;;;;;;;;;;14.31;100.00;98171.69;5070287;28;19993;-73
2022/10/02 09:24:37;;;;;;;;;;;;;;;14.07;100.00;98167.03;5076877;28;19924;-73
2022/10/02 09:27:21;;;;;;;;;;;;;;;14.22;100.00;98165.31;5072815;28;20000;-72
2022/10/02 09:30:04;;;;;;;;;;;;;;;14.03;100.00;98155.25;5070036;28;19924;-74
2022/10/02 09:32:57;;;;;;;;;;;;;;;14.15;100.00;98157.56;5094630;28;19924;-73
2022/10/02 09:35:57;;;;;;;;;;;;;;;14.12;100.00;98151.94;5079605;28;19925;-73
2022/10/02 09:38:37;;;;;;;;;;;;;;;14.04;100.00;98151.47;5077990;28;19920;-72
2022/10/02 09:41:24;;;;;;;;;;;;;;;14.20;100.00;98160.25;5080455;28;19971;-76
2022/10/02 09:44:08;;;;;;;;;;;;;;;14.24;100.00;98153.19;5067277;28;19968;-75
2022/10/02 09:46:59;;;;;;;;;;;;;;;14.10;100.00;98144.19;5040818;28;19980;-74
2022/10/02 09:49:49;;;;;;;;;;;;;;;14.21;100.00;98155.63;5064942;28;19992;-75
2022/10/02 09:52:24;;;;;;;;;;;;;;;14.18;100.00;98157.00;5076092;28;19964;-74
2022/10/02 09:55:13;;;;;;;;;;;;;;;14.24;100.00;98152.41;5068740;28;20458;-74
2022/10/02 09:58:01;;;;;;;;;;;;;;;14.22;100.00;98146.50;5078746;28;19932;-73
2022/10/02 10:00:38;;;;;;;;;;;;;;;14.18;100.00;98148.13;5080516;28;20015;-73
2022/10/02 10:03:23;;;;;;;;;;;;;;;14.07;100.00;98153.59;5077188;28;20020;-77
2022/10/02 10:05:54;;;;;;;;;;;;;;;14.17;100.00;98142.00;5068447;28;20343;-75
2022/10/02 10:08:35;;;;;;;;;;;;;;;14.23;100.00;98140.06;5077479;28;19988;-75
2022/10/02 10:11:12;;;;;;;;;;;;;;;14.22;100.00;98130.41;5070439;28;19956;-74
2022/10/02 10:13:59;;;;;;;;;;;;;;;14.26;100.00;98140.31;5079720;28;19925;-75
2022/10/02 10:16:46;;;;;;;;;;;;;;;14.38;100.00;98134.59;5079581;28;19936;-75
2022/10/02 10:19:30;;;;;;;;;;;;;;;14.21;100.00;98134.16;5041107;28;19925;-76
2022/10/02 10:22:05;;;;;;;;;;;;;;;14.16;100.00;98128.84;5066712;28;19932;-72
2022/10/02 10:24:43;;;;;;;;;;;;;;;14.11;100.00;98134.25;5075567;28;20016;-77
2022/10/02 10:27:20;;;;;;;;;;;;;;;14.29;100.00;98139.75;5080353;28;19991;-74
2022/10/02 10:30:04;;;;;;;;;;;;;;;14.25;100.00;98136.00;5091942;28;19936;-72
2022/10/02 10:32:42;;;;;;;;;;;;;;;14.39;100.00;98142.34;5076232;28;19925;-73
2022/10/02 10:35:24;;;;;;;;;;;;;;;14.30;100.00;98143.22;5079221;28;19925;-72
2022/10/02 10:40:46;;;;;;;;;;;;;;;14.58;100.00;98142.47;5093491;28;19932;-75
2022/10/02 10:43:32;;;;;;;;;;;;;;;14.66;100.00;98141.88;5083152;28;19972;-74
2022/10/02 10:46:10;;;;;;;;;;;;;;;14.33;100.00;98146.19;5046627;28;19992;-73
2022/10/02 10:48:58;;;;;;;;;;;;;;;14.46;100.00;98142.03;5091107;28;20012;-72
2022/10/02 10:51:32;;;;;;;;;;;;;;;14.59;100.00;98136.00;5077431;28;19966;-72
2022/10/02 10:54:20;;;;;;;;;;;;;;;14.42;100.00;98141.03;5074933;28;19925;-72
2022/10/02 10:56:50;;;;;;;;;;;;;;;14.56;100.00;98141.97;5078392;28;19928;-72
2022/10/02 10:59:47;;;;;;;;;;;;;;;14.64;100.00;98124.44;5078144;28;19925;-74
2022/10/02 11:02:30;;;;;;;;;;;;;;;14.59;100.00;98111.81;5070970;28;19924;-72
2022/10/02 11:05:06;;;;;;;;;;;;;;;14.70;100.00;98116.00;5068656;28;19988;-74
2022/10/02 11:07:43;;;;;;;;;;;;;;;14.68;100.00;98102.06;5075650;28;19925;-75
2022/10/02 11:10:28;;;;;;;;;;;;;;;14.73;100.00;98104.69;5093860;28;19925;-72
2022/10/02 11:13:02;;;;;;;;;;;;;;;14.51;100.00;98086.34;5068569;28;19925;-76
2022/10/02 11:15:50;;;;;;;;;;;;;;;14.59;100.00;98091.13;5077444;28;19920;-75
2022/10/02 11:18:25;;;;;;;;;;;;;;;14.61;100.00;98096.22;5053931;28;20125;-77
2022/10/02 11:21:10;;;;;;;;;;;;;;;14.67;100.00;98091.59;5067209;28;19931;-75
2022/10/02 11:23:44;;;;;;;;;;;;;;;14.63;100.00;98091.38;5099252;28;19929;-76
2022/10/02 11:26:26;;;;;;;;;;;;;;;14.68;100.00;98090.50;5073325;28;19994;-76
2022/10/02 11:29:16;;;;;;;;;;;;;;;14.68;100.00;98099.38;5066832;28;21321;-76
2022/10/02 11:31:52;;;;;;;;;;;;;;;14.71;100.00;98101.50;5076806;28;19963;-76
2022/10/02 11:34:41;;;;;;;;;;;;;;;14.41;100.00;98093.72;5093026;28;19920;-76
2022/10/02 11:37:17;;;;;;;;;;;;;;;14.56;100.00;98088.22;5076627;28;19929;-76
2022/10/02 11:39:58;;;;;;;;;;;;;;;14.59;100.00;98079.56;5076463;28;19924;-76
2022/10/02 11:42:40;;;;;;;;;;;;;;;14.69;100.00;98073.28;5064974;28;19951;-77
2022/10/02 11:45:22;;;;;;;;;;;;;;;14.47;100.00;98079.97;5074257;28;19931;-75
2022/10/02 11:48:08;;;;;;;;;;;;;;;14.55;100.00;98075.84;5066033;28;19956;-76
2022/10/02 11:50:46;;;;;;;;;;;;;;;14.72;100.00;98070.03;5075035;28;19940;-74
2022/10/02 11:53:33;;;;;;;;;;;;;;;14.72;100.00;98072.72;5081355;28;20252;-74
2022/10/02 11:56:21;;;;;;;;;;;;;;;14.78;100.00;98075.06;5067787;28;19925;-74
2022/10/02 11:58:56;;;;;;;;;;;;;;;14.73;100.00;98083.19;5065794;28;19925;-74
2022/10/02 12:01:27;;;;;;;;;;;;;;;14.73;100.00;98088.56;5073657;28;19951;-72
2022/10/02 12:04:10;;;;;;;;;;;;;;;14.66;100.00;98088.13;5067597;28;19992;-74
2022/10/02 12:06:51;;;;;;;;;;;;;;;14.47;100.00;98088.03;5076611;28;19925;-73
2022/10/02 12:09:22;;;;;;;;;;;;;;;14.43;100.00;98062.00;5077663;28;19925;-73
2022/10/02 12:11:56;;;;;;;;;;;;;;;14.44;100.00;98064.41;5065895;28;19929;-73
2022/10/02 12:14:31;;;;;;;;;;;;;;;14.60;100.00;98073.13;5074290;28;19956;-74
2022/10/02 12:17:05;;;;;;;;;;;;;;;14.58;100.00;98075.28;5077623;28;19963;-72
2022/10/02 12:19:39;;;;;;;;;;;;;;;14.63;100.00;98091.38;5076747;28;19924;-73
2022/10/02 12:27:52;;;;;;;;;;;;;;;14.57;100.00;98087.13;5078411;28;19929;-72
2022/10/02 12:30:19;;;;;;;;;;;;;;;14.53;100.00;98094.94;5078383;28;19974;-73
2022/10/02 12:33:07;;;;;;;;;;;;;;;14.50;100.00;98086.66;5074828;28;19929;-73
2022/10/02 12:35:47;;;;;;;;;;;;;;;14.52;100.00;98092.53;5073718;28;19925;-72
2022/10/02 12:38:21;;;;;;;;;;;;;;;14.61;100.00;98079.31;5077813;28;20364;-73
2022/10/02 12:40:57;;;;;;;;;;;;;;;14.61;100.00;98082.00;5065475;28;20200;-73
2022/10/02 12:43:42;;;;;;;;;;;;;;;14.62;100.00;98087.06;5073689;28;19967;-72
2022/10/02 12:46:23;;;;;;;;;;;;;;;14.61;100.00;98087.38;5079814;28;19929;-73
2022/10/02 12:48:59;;;;;;;;;;;;;;;14.58;100.00;98084.13;5070120;28;20431;-73
2022/10/02 12:51:45;;;;;;;;;;;;;;;14.53;100.00;98088.78;5078234;28;19971;-74
2022/10/02 12:54:26;;;;;;;;;;;;;;;14.65;100.00;98081.13;5079789;28;19964;-74
2022/10/02 12:57:50;;;;;;;;;;;;;;;14.59;100.00;98087.63;5070496;28;19932;-74
2022/10/02 13:00:01;;;;;;;;;;;;;;;14.62;100.00;98080.88;5071121;28;20004;-73
2022/10/02 13:02:49;;;;;;;;;;;;;;;14.65;100.00;98078.44;5078425;28;19925;-73
2022/10/02 13:05:31;;;;;;;;;;;;;;;14.72;100.00;98076.22;5081002;28;19950;-74
2022/10/02 13:08:13;;;;;;;;;;;;;;;14.53;100.00;98073.44;5069417;28;19936;-72
2022/10/02 13:10:42;;;;;;;;;;;;;;;14.49;100.00;98076.97;5079493;28;19992;-72
2022/10/02 13:13:24;;;;;;;;;;;;;;;14.59;100.00;98082.25;5081101;28;19931;-73
2022/10/02 13:15:57;;;;;;;;;;;;;;;14.64;100.00;98082.19;5056745;28;19929;-73
2022/10/02 13:18:42;;;;;;;;;;;;;;;14.50;100.00;98075.91;5056855;28;19925;-74
2022/10/02 13:21:12;;;;;;;;;;;;;;;14.52;100.00;98052.22;5078424;28;19968;-73
2022/10/02 13:23:42;;;;;;;;;;;;;;;14.60;100.00;98057.00;5082478;28;19924;-74
2022/10/02 13:26:14;;;;;;;;;;;;;;;14.64;100.00;98049.94;5077318;28;19999;-73
2022/10/02 13:28:48;;;;;;;;;;;;;;;14.55;100.00;98046.28;5079476;28;19925;-73